sensor_id;sensor_type;location;lat;lon;timestamp;temperature;humidity
18281;DHT22;9266;51.132;17.062;2022-08-03T00:00:58;17.90;99.90
18281;DHT22;9266;51.132;17.062;2022-08-03T00:03:26;17.80;99.90
18281;DHT22;9266;51.132;17.062;2022-08-03T00:05:53;17.80;1.00
18281;DHT22;9266;51.132;17.062;2022-08-03T00:08:21;17.80;1.00
18281;DHT22;9266;51.132;17.062;2022-08-03T00:10:48;17.70;1.00
18281;DHT22;9266;51.132;17.062;2022-08-03T00:13:15;17.70;1.00
18281;DHT22;9266;51.132;17.062;2022-08-03T00:15:44;17.70;1.00
18281;DHT22;9266;51.132;17.062;2022-08-03T00:18:11;17.60;1.00
18281;DHT22;9266;51.132;17.062;2022-08-03T00:20:38;17.50;99.90
18281;DHT22;9266;51.132;17.062;2022-08-03T00:23:05;17.50;99.90
18281;DHT22;9266;51.132;17.062;2022-08-03T00:25:35;17.50;99.90
18281;DHT22;9266;51.132;17.062;2022-08-03T00:28:03;17.50;99.90
18281;DHT22;9266;51.132;17.062;2022-08-03T00:30:30;17.60;1.00
18281;DHT22;9266;51.132;17.062;2022-08-03T00:32:58;17.60;99.90
18281;DHT22;9266;51.132;17.062;2022-08-03T00:35:25;17.50;1.00
18281;DHT22;9266;51.132;17.062;2022-08-03T00:37:53;17.40;1.00
18281;DHT22;9266;51.132;17.062;2022-08-03T00:40:20;17.40;1.00
18281;DHT22;9266;51.132;17.062;2022-08-03T00:42:57;17.30;1.00
18281;DHT22;9266;51.132;17.062;2022-08-03T00:45:28;17.30;81.90
18281;DHT22;9266;51.132;17.062;2022-08-03T00:47:56;17.30;99.90
18281;DHT22;9266;51.132;17.062;2022-08-03T00:50:24;17.30;99.90
18281;DHT22;9266;51.132;17.062;2022-08-03T00:52:53;17.40;99.90
18281;DHT22;9266;51.132;17.062;2022-08-03T00:55:21;17.40;99.90
18281;DHT22;9266;51.132;17.062;2022-08-03T00:57:48;17.30;1.00
18281;DHT22;9266;51.132;17.062;2022-08-03T01:00:18;17.30;1.00
18281;DHT22;9266;51.132;17.062;2022-08-03T01:02:46;17.20;1.00
18281;DHT22;9266;51.132;17.062;2022-08-03T01:05:14;17.10;1.00
18281;DHT22;9266;51.132;17.062;2022-08-03T01:07:50;17.10;1.00
18281;DHT22;9266;51.132;17.062;2022-08-03T01:10:27;17.10;1.00
18281;DHT22;9266;51.132;17.062;2022-08-03T01:13:03;17.10;1.00
18281;DHT22;9266;51.132;17.062;2022-08-03T01:15:40;17.10;1.00
18281;DHT22;9266;51.132;17.062;2022-08-03T01:18:13;17.00;1.00
18281;DHT22;9266;51.132;17.062;2022-08-03T01:20:44;17.00;1.00
18281;DHT22;9266;51.132;17.062;2022-08-03T01:23:34;16.90;1.00
18281;DHT22;9266;51.132;17.062;2022-08-03T01:26:11;16.90;1.00
18281;DHT22;9266;51.132;17.062;2022-08-03T01:29:00;16.90;1.00
18281;DHT22;9266;51.132;17.062;2022-08-03T01:31:37;16.80;1.00
18281;DHT22;9266;51.132;17.062;2022-08-03T01:34:08;16.90;1.00
18281;DHT22;9266;51.132;17.062;2022-08-03T01:36:40;16.80;1.00
18281;DHT22;9266;51.132;17.062;2022-08-03T01:39:10;16.80;3.60
18281;DHT22;9266;51.132;17.062;2022-08-03T01:41:43;16.70;13.50
18281;DHT22;9266;51.132;17.062;2022-08-03T01:44:12;16.70;15.30
18281;DHT22;9266;51.132;17.062;2022-08-03T01:46:42;16.70;33.10
18281;DHT22;9266;51.132;17.062;2022-08-03T01:49:14;16.70;26.30
18281;DHT22;9266;51.132;17.062;2022-08-03T01:51:44;16.80;1.00
18281;DHT22;9266;51.132;17.062;2022-08-03T01:54:13;16.70;99.90
18281;DHT22;9266;51.132;17.062;2022-08-03T01:56:41;16.80;99.90
18281;DHT22;9266;51.132;17.062;2022-08-03T01:59:10;16.70;99.90
18281;DHT22;9266;51.132;17.062;2022-08-03T02:01:39;16.70;99.90
18281;DHT22;9266;51.132;17.062;2022-08-03T02:04:10;16.70;99.90
18281;DHT22;9266;51.132;17.062;2022-08-03T02:06:39;16.70;98.70
18281;DHT22;9266;51.132;17.062;2022-08-03T02:09:07;16.60;99.90
18281;DHT22;9266;51.132;17.062;2022-08-03T02:11:35;16.50;99.90
18281;DHT22;9266;51.132;17.062;2022-08-03T02:14:04;16.40;99.90
18281;DHT22;9266;51.132;17.062;2022-08-03T02:16:32;16.40;99.90
18281;DHT22;9266;51.132;17.062;2022-08-03T02:19:03;16.30;99.90
18281;DHT22;9266;51.132;17.062;2022-08-03T02:21:35;16.30;99.90
18281;DHT22;9266;51.132;17.062;2022-08-03T02:24:03;16.30;99.90
18281;DHT22;9266;51.132;17.062;2022-08-03T02:26:31;16.30;99.90
18281;DHT22;9266;51.132;17.062;2022-08-03T02:29:02;16.30;99.90
18281;DHT22;9266;51.132;17.062;2022-08-03T02:31:33;16.30;99.90
18281;DHT22;9266;51.132;17.062;2022-08-03T02:34:07;16.40;99.90
18281;DHT22;9266;51.132;17.062;2022-08-03T02:36:38;16.40;99.90
18281;DHT22;9266;51.132;17.062;2022-08-03T02:39:09;16.40;99.90
18281;DHT22;9266;51.132;17.062;2022-08-03T02:41:40;16.50;99.90
18281;DHT22;9266;51.132;17.062;2022-08-03T02:44:09;16.60;99.90
18281;DHT22;9266;51.132;17.062;2022-08-03T02:46:38;16.60;99.90
18281;DHT22;9266;51.132;17.062;2022-08-03T02:49:08;16.70;44.60
18281;DHT22;9266;51.132;17.062;2022-08-03T02:51:38;16.60;99.90
18281;DHT22;9266;51.132;17.062;2022-08-03T02:54:06;16.70;17.10
18281;DHT22;9266;51.132;17.062;2022-08-03T02:56:34;16.70;1.00
18281;DHT22;9266;51.132;17.062;2022-08-03T02:59:03;16.70;11.20
18281;DHT22;9266;51.132;17.062;2022-08-03T03:01:32;16.70;99.90
18281;DHT22;9266;51.132;17.062;2022-08-03T03:03:59;16.70;99.90
18281;DHT22;9266;51.132;17.062;2022-08-03T03:06:27;16.60;99.90
18281;DHT22;9266;51.132;17.062;2022-08-03T03:08:56;16.60;99.90
18281;DHT22;9266;51.132;17.062;2022-08-03T03:11:24;16.60;99.90
18281;DHT22;9266;51.132;17.062;2022-08-03T03:13:52;16.60;99.90
18281;DHT22;9266;51.132;17.062;2022-08-03T03:16:21;16.60;99.90
18281;DHT22;9266;51.132;17.062;2022-08-03T03:18:50;16.60;99.90
18281;DHT22;9266;51.132;17.062;2022-08-03T03:21:18;16.70;99.90
18281;DHT22;9266;51.132;17.062;2022-08-03T03:23:47;16.80;99.90
18281;DHT22;9266;51.132;17.062;2022-08-03T03:26:16;16.80;99.90
18281;DHT22;9266;51.132;17.062;2022-08-03T03:28:44;16.90;99.90
18281;DHT22;9266;51.132;17.062;2022-08-03T03:31:11;16.80;99.90
18281;DHT22;9266;51.132;17.062;2022-08-03T03:33:38;16.90;99.90
18281;DHT22;9266;51.132;17.062;2022-08-03T03:36:06;16.90;93.80
18281;DHT22;9266;51.132;17.062;2022-08-03T03:38:33;17.00;1.00
18281;DHT22;9266;51.132;17.062;2022-08-03T03:41:00;17.00;1.00
18281;DHT22;9266;51.132;17.062;2022-08-03T03:43:29;17.00;1.00
18281;DHT22;9266;51.132;17.062;2022-08-03T03:45:57;17.00;1.00
18281;DHT22;9266;51.132;17.062;2022-08-03T03:48:25;17.10;1.00
18281;DHT22;9266;51.132;17.062;2022-08-03T03:50:55;17.10;1.00
18281;DHT22;9266;51.132;17.062;2022-08-03T03:53:25;17.10;1.00
18281;DHT22;9266;51.132;17.062;2022-08-03T03:55:52;17.20;1.00
18281;DHT22;9266;51.132;17.062;2022-08-03T03:58:19;17.30;1.00
18281;DHT22;9266;51.132;17.062;2022-08-03T04:00:48;17.50;1.00
18281;DHT22;9266;51.132;17.062;2022-08-03T04:03:15;17.80;1.00
18281;DHT22;9266;51.132;17.062;2022-08-03T04:05:43;17.80;1.00
18281;DHT22;9266;51.132;17.062;2022-08-03T04:08:28;17.70;1.00
18281;DHT22;9266;51.132;17.062;2022-08-03T04:11:15;17.60;1.00
18281;DHT22;9266;51.132;17.062;2022-08-03T04:13:50;17.50;99.90
18281;DHT22;9266;51.132;17.062;2022-08-03T04:16:20;17.30;99.90
18281;DHT22;9266;51.132;17.062;2022-08-03T04:18:51;17.30;1.00
18281;DHT22;9266;51.132;17.062;2022-08-03T04:21:20;17.20;1.00
18281;DHT22;9266;51.132;17.062;2022-08-03T04:23:52;17.20;1.00
18281;DHT22;9266;51.132;17.062;2022-08-03T04:26:23;17.10;1.00
18281;DHT22;9266;51.132;17.062;2022-08-03T04:28:51;17.10;1.00
18281;DHT22;9266;51.132;17.062;2022-08-03T04:31:22;17.10;1.00
18281;DHT22;9266;51.132;17.062;2022-08-03T04:33:52;17.00;1.00
18281;DHT22;9266;51.132;17.062;2022-08-03T04:36:21;17.10;1.00
18281;DHT22;9266;51.132;17.062;2022-08-03T04:38:56;17.10;1.00
18281;DHT22;9266;51.132;17.062;2022-08-03T04:41:27;17.20;1.00
18281;DHT22;9266;51.132;17.062;2022-08-03T04:43:57;17.20;1.00
18281;DHT22;9266;51.132;17.062;2022-08-03T04:46:28;17.20;1.00
18281;DHT22;9266;51.132;17.062;2022-08-03T04:48:57;17.20;1.00
18281;DHT22;9266;51.132;17.062;2022-08-03T04:51:25;17.20;1.00
18281;DHT22;9266;51.132;17.062;2022-08-03T04:53:52;17.30;1.00
18281;DHT22;9266;51.132;17.062;2022-08-03T04:56:19;17.30;1.00
18281;DHT22;9266;51.132;17.062;2022-08-03T04:58:46;17.40;1.00
18281;DHT22;9266;51.132;17.062;2022-08-03T05:01:14;17.50;1.00
18281;DHT22;9266;51.132;17.062;2022-08-03T05:03:43;17.60;1.00
18281;DHT22;9266;51.132;17.062;2022-08-03T05:06:09;17.90;1.00
18281;DHT22;9266;51.132;17.062;2022-08-03T05:08:36;18.10;99.90
18281;DHT22;9266;51.132;17.062;2022-08-03T05:11:04;18.40;1.00
18281;DHT22;9266;51.132;17.062;2022-08-03T05:13:30;18.70;1.00
18281;DHT22;9266;51.132;17.062;2022-08-03T05:15:58;19.00;1.00
18281;DHT22;9266;51.132;17.062;2022-08-03T05:18:24;19.40;1.00
18281;DHT22;9266;51.132;17.062;2022-08-03T05:20:53;19.60;1.40
18281;DHT22;9266;51.132;17.062;2022-08-03T05:23:20;19.80;1.00
18281;DHT22;9266;51.132;17.062;2022-08-03T05:25:47;20.50;99.90
18281;DHT22;9266;51.132;17.062;2022-08-03T05:28:14;21.50;1.00
18281;DHT22;9266;51.132;17.062;2022-08-03T05:30:41;22.60;1.00
18281;DHT22;9266;51.132;17.062;2022-08-03T05:33:08;23.20;96.70
18281;DHT22;9266;51.132;17.062;2022-08-03T05:35:36;22.90;1.00
18281;DHT22;9266;51.132;17.062;2022-08-03T05:38:05;22.80;1.00
18281;DHT22;9266;51.132;17.062;2022-08-03T05:40:32;23.20;1.00
18281;DHT22;9266;51.132;17.062;2022-08-03T05:43:00;23.00;1.00
18281;DHT22;9266;51.132;17.062;2022-08-03T05:45:27;23.50;1.00
18281;DHT22;9266;51.132;17.062;2022-08-03T05:47:54;23.10;1.00
18281;DHT22;9266;51.132;17.062;2022-08-03T05:50:21;24.00;99.90
18281;DHT22;9266;51.132;17.062;2022-08-03T05:52:49;24.50;99.90
18281;DHT22;9266;51.132;17.062;2022-08-03T05:55:17;25.20;1.00
18281;DHT22;9266;51.132;17.062;2022-08-03T05:57:45;25.00;99.90
18281;DHT22;9266;51.132;17.062;2022-08-03T06:00:14;24.50;99.90
18281;DHT22;9266;51.132;17.062;2022-08-03T06:02:41;24.10;99.90
18281;DHT22;9266;51.132;17.062;2022-08-03T06:05:09;24.20;99.90
18281;DHT22;9266;51.132;17.062;2022-08-03T06:07:36;24.10;99.90
18281;DHT22;9266;51.132;17.062;2022-08-03T06:10:04;25.30;99.90
18281;DHT22;9266;51.132;17.062;2022-08-03T06:12:33;26.80;1.00
18281;DHT22;9266;51.132;17.062;2022-08-03T06:15:01;27.30;99.90
18281;DHT22;9266;51.132;17.062;2022-08-03T06:17:28;28.20;1.00
18281;DHT22;9266;51.132;17.062;2022-08-03T06:19:55;28.40;99.90
18281;DHT22;9266;51.132;17.062;2022-08-03T06:22:23;29.40;99.90
18281;DHT22;9266;51.132;17.062;2022-08-03T06:24:49;28.80;99.90
18281;DHT22;9266;51.132;17.062;2022-08-03T06:27:17;29.10;99.90
18281;DHT22;9266;51.132;17.062;2022-08-03T06:29:46;29.20;38.30
18281;DHT22;9266;51.132;17.062;2022-08-03T06:32:13;29.10;1.00
18281;DHT22;9266;51.132;17.062;2022-08-03T06:34:41;30.10;1.00
18281;DHT22;9266;51.132;17.062;2022-08-03T06:37:08;29.90;1.00
18281;DHT22;9266;51.132;17.062;2022-08-03T06:39:35;29.50;1.00
18281;DHT22;9266;51.132;17.062;2022-08-03T06:42:02;29.90;1.00
18281;DHT22;9266;51.132;17.062;2022-08-03T06:44:29;29.80;1.00
18281;DHT22;9266;51.132;17.062;2022-08-03T06:46:57;30.40;1.00
18281;DHT22;9266;51.132;17.062;2022-08-03T06:49:24;30.80;1.00
18281;DHT22;9266;51.132;17.062;2022-08-03T06:51:52;31.70;1.00
18281;DHT22;9266;51.132;17.062;2022-08-03T06:54:19;31.80;1.00
18281;DHT22;9266;51.132;17.062;2022-08-03T06:56:49;31.60;99.90
18281;DHT22;9266;51.132;17.062;2022-08-03T06:59:16;31.80;99.90
18281;DHT22;9266;51.132;17.062;2022-08-03T07:01:43;32.20;99.90
18281;DHT22;9266;51.132;17.062;2022-08-03T07:04:11;32.40;99.90
18281;DHT22;9266;51.132;17.062;2022-08-03T07:06:38;32.10;99.90
18281;DHT22;9266;51.132;17.062;2022-08-03T07:09:05;31.80;99.90
18281;DHT22;9266;51.132;17.062;2022-08-03T07:11:32;31.90;99.90
18281;DHT22;9266;51.132;17.062;2022-08-03T07:13:59;32.50;99.90
18281;DHT22;9266;51.132;17.062;2022-08-03T07:16:26;32.10;99.90
18281;DHT22;9266;51.132;17.062;2022-08-03T07:18:53;31.70;99.90
18281;DHT22;9266;51.132;17.062;2022-08-03T07:21:22;32.10;99.90
18281;DHT22;9266;51.132;17.062;2022-08-03T07:23:49;32.50;99.90
18281;DHT22;9266;51.132;17.062;2022-08-03T07:26:15;32.70;93.50
18281;DHT22;9266;51.132;17.062;2022-08-03T07:28:43;33.20;99.90
18281;DHT22;9266;51.132;17.062;2022-08-03T07:31:09;33.80;99.90
18281;DHT22;9266;51.132;17.062;2022-08-03T07:33:36;33.30;99.90
18281;DHT22;9266;51.132;17.062;2022-08-03T07:36:04;33.50;43.70
18281;DHT22;9266;51.132;17.062;2022-08-03T07:38:33;33.20;42.50
18281;DHT22;9266;51.132;17.062;2022-08-03T07:41:01;33.60;10.70
18281;DHT22;9266;51.132;17.062;2022-08-03T07:43:28;34.00;97.70
18281;DHT22;9266;51.132;17.062;2022-08-03T07:45:55;33.20;22.10
18281;DHT22;9266;51.132;17.062;2022-08-03T07:48:22;33.40;1.00
18281;DHT22;9266;51.132;17.062;2022-08-03T07:50:49;34.00;1.00
18281;DHT22;9266;51.132;17.062;2022-08-03T07:53:16;34.10;1.00
18281;DHT22;9266;51.132;17.062;2022-08-03T07:55:44;33.80;1.00
18281;DHT22;9266;51.132;17.062;2022-08-03T07:58:12;32.70;1.00
18281;DHT22;9266;51.132;17.062;2022-08-03T08:00:42;32.60;1.00
18281;DHT22;9266;51.132;17.062;2022-08-03T08:03:10;32.40;1.00
18281;DHT22;9266;51.132;17.062;2022-08-03T08:05:38;32.50;1.00
18281;DHT22;9266;51.132;17.062;2022-08-03T08:08:05;33.20;1.00
18281;DHT22;9266;51.132;17.062;2022-08-03T08:10:33;33.30;1.00
18281;DHT22;9266;51.132;17.062;2022-08-03T08:13:03;33.10;1.00
18281;DHT22;9266;51.132;17.062;2022-08-03T08:15:30;32.70;1.00
18281;DHT22;9266;51.132;17.062;2022-08-03T08:17:58;33.10;1.00
18281;DHT22;9266;51.132;17.062;2022-08-03T08:20:28;33.40;1.00
18281;DHT22;9266;51.132;17.062;2022-08-03T08:22:55;33.80;1.00
18281;DHT22;9266;51.132;17.062;2022-08-03T08:25:24;34.50;1.00
18281;DHT22;9266;51.132;17.062;2022-08-03T08:27:51;33.90;1.00
18281;DHT22;9266;51.132;17.062;2022-08-03T08:30:21;33.20;1.00
18281;DHT22;9266;51.132;17.062;2022-08-03T08:32:49;33.20;1.00
18281;DHT22;9266;51.132;17.062;2022-08-03T08:35:16;33.40;1.00
18281;DHT22;9266;51.132;17.062;2022-08-03T08:37:45;32.80;1.00
18281;DHT22;9266;51.132;17.062;2022-08-03T08:40:12;32.60;1.00
18281;DHT22;9266;51.132;17.062;2022-08-03T08:42:40;32.50;1.00
18281;DHT22;9266;51.132;17.062;2022-08-03T08:45:08;32.70;1.00
18281;DHT22;9266;51.132;17.062;2022-08-03T08:47:39;32.50;1.00
18281;DHT22;9266;51.132;17.062;2022-08-03T08:50:07;32.30;1.00
18281;DHT22;9266;51.132;17.062;2022-08-03T08:52:36;32.60;1.00
18281;DHT22;9266;51.132;17.062;2022-08-03T08:55:08;32.60;1.00
18281;DHT22;9266;51.132;17.062;2022-08-03T08:57:38;32.60;1.00
18281;DHT22;9266;51.132;17.062;2022-08-03T09:00:09;32.60;1.00
18281;DHT22;9266;51.132;17.062;2022-08-03T09:02:40;33.20;1.00
18281;DHT22;9266;51.132;17.062;2022-08-03T09:05:09;33.00;1.00
18281;DHT22;9266;51.132;17.062;2022-08-03T09:07:37;32.70;1.00
18281;DHT22;9266;51.132;17.062;2022-08-03T09:10:06;32.90;1.00
18281;DHT22;9266;51.132;17.062;2022-08-03T09:12:37;32.30;1.00
18281;DHT22;9266;51.132;17.062;2022-08-03T09:15:22;32.20;1.00
18281;DHT22;9266;51.132;17.062;2022-08-03T09:17:53;32.80;1.00
18281;DHT22;9266;51.132;17.062;2022-08-03T09:20:21;32.80;1.00
18281;DHT22;9266;51.132;17.062;2022-08-03T09:22:54;32.30;1.00
18281;DHT22;9266;51.132;17.062;2022-08-03T09:25:27;32.30;1.00
18281;DHT22;9266;51.132;17.062;2022-08-03T09:27:55;32.10;1.00
18281;DHT22;9266;51.132;17.062;2022-08-03T09:30:38;31.90;1.00
18281;DHT22;9266;51.132;17.062;2022-08-03T09:33:08;31.20;1.00
18281;DHT22;9266;51.132;17.062;2022-08-03T09:35:40;30.80;1.00
18281;DHT22;9266;51.132;17.062;2022-08-03T09:38:09;30.50;1.00
18281;DHT22;9266;51.132;17.062;2022-08-03T09:40:36;30.10;99.90
18281;DHT22;9266;51.132;17.062;2022-08-03T09:43:03;30.00;99.90
18281;DHT22;9266;51.132;17.062;2022-08-03T09:45:33;29.40;99.90
18281;DHT22;9266;51.132;17.062;2022-08-03T09:48:20;29.60;99.90
18281;DHT22;9266;51.132;17.062;2022-08-03T09:50:48;29.60;99.90
18281;DHT22;9266;51.132;17.062;2022-08-03T09:53:16;29.50;99.90
18281;DHT22;9266;51.132;17.062;2022-08-03T09:55:50;29.50;99.90
18281;DHT22;9266;51.132;17.062;2022-08-03T09:58:17;29.40;99.90
18281;DHT22;9266;51.132;17.062;2022-08-03T10:00:54;29.50;99.90
18281;DHT22;9266;51.132;17.062;2022-08-03T10:03:23;29.60;99.90
18281;DHT22;9266;51.132;17.062;2022-08-03T10:05:50;29.80;99.90
18281;DHT22;9266;51.132;17.062;2022-08-03T10:08:19;29.80;99.90
18281;DHT22;9266;51.132;17.062;2022-08-03T10:10:48;29.70;99.90
18281;DHT22;9266;51.132;17.062;2022-08-03T10:13:17;29.70;99.90
18281;DHT22;9266;51.132;17.062;2022-08-03T10:15:44;30.00;99.90
18281;DHT22;9266;51.132;17.062;2022-08-03T10:18:12;29.80;99.90
18281;DHT22;9266;51.132;17.062;2022-08-03T10:20:44;29.90;99.90
18281;DHT22;9266;51.132;17.062;2022-08-03T10:23:13;29.80;99.90
18281;DHT22;9266;51.132;17.062;2022-08-03T10:25:43;29.80;99.90
18281;DHT22;9266;51.132;17.062;2022-08-03T10:28:15;29.90;99.90
18281;DHT22;9266;51.132;17.062;2022-08-03T10:30:47;29.80;99.90
18281;DHT22;9266;51.132;17.062;2022-08-03T10:33:18;30.00;99.90
18281;DHT22;9266;51.132;17.062;2022-08-03T10:35:51;30.10;99.90
18281;DHT22;9266;51.132;17.062;2022-08-03T10:38:21;30.10;99.90
18281;DHT22;9266;51.132;17.062;2022-08-03T10:40:53;29.80;99.90
18281;DHT22;9266;51.132;17.062;2022-08-03T10:43:21;30.00;99.90
18281;DHT22;9266;51.132;17.062;2022-08-03T10:45:51;30.20;99.90
18281;DHT22;9266;51.132;17.062;2022-08-03T10:48:19;30.30;99.90
18281;DHT22;9266;51.132;17.062;2022-08-03T10:50:48;30.40;99.90
18281;DHT22;9266;51.132;17.062;2022-08-03T10:53:33;30.30;99.90
18281;DHT22;9266;51.132;17.062;2022-08-03T10:56:00;30.30;99.90
18281;DHT22;9266;51.132;17.062;2022-08-03T10:58:49;30.30;99.90
18281;DHT22;9266;51.132;17.062;2022-08-03T11:01:18;30.40;99.90
18281;DHT22;9266;51.132;17.062;2022-08-03T11:07:20;30.30;99.90
18281;DHT22;9266;51.132;17.062;2022-08-03T11:09:53;29.80;99.90
18281;DHT22;9266;51.132;17.062;2022-08-03T11:12:23;29.80;99.90
18281;DHT22;9266;51.132;17.062;2022-08-03T11:14:50;30.00;99.90
18281;DHT22;9266;51.132;17.062;2022-08-03T11:17:18;30.10;99.90
18281;DHT22;9266;51.132;17.062;2022-08-03T11:19:46;30.60;99.90
18281;DHT22;9266;51.132;17.062;2022-08-03T11:22:14;30.70;99.90
18281;DHT22;9266;51.132;17.062;2022-08-03T11:25:11;30.80;99.90
18281;DHT22;9266;51.132;17.062;2022-08-03T11:27:40;30.80;99.90
18281;DHT22;9266;51.132;17.062;2022-08-03T11:30:08;30.80;99.90
18281;DHT22;9266;51.132;17.062;2022-08-03T11:32:57;30.90;99.90
18281;DHT22;9266;51.132;17.062;2022-08-03T11:35:26;30.80;99.90
18281;DHT22;9266;51.132;17.062;2022-08-03T11:38:08;30.70;99.90
18281;DHT22;9266;51.132;17.062;2022-08-03T11:40:38;30.70;99.90
18281;DHT22;9266;51.132;17.062;2022-08-03T11:43:06;31.00;99.90
18281;DHT22;9266;51.132;17.062;2022-08-03T11:45:34;31.20;99.90
18281;DHT22;9266;51.132;17.062;2022-08-03T11:48:13;31.10;99.90
18281;DHT22;9266;51.132;17.062;2022-08-03T11:50:41;31.10;99.90
18281;DHT22;9266;51.132;17.062;2022-08-03T11:53:14;31.00;99.90
18281;DHT22;9266;51.132;17.062;2022-08-03T11:55:45;31.00;99.90
18281;DHT22;9266;51.132;17.062;2022-08-03T11:58:17;30.90;99.90
18281;DHT22;9266;51.132;17.062;2022-08-03T12:00:45;30.90;99.90
18281;DHT22;9266;51.132;17.062;2022-08-03T12:03:14;30.70;99.90
18281;DHT22;9266;51.132;17.062;2022-08-03T12:05:46;30.50;99.90
18281;DHT22;9266;51.132;17.062;2022-08-03T12:08:15;30.70;99.90
18281;DHT22;9266;51.132;17.062;2022-08-03T12:10:49;30.80;99.90
18281;DHT22;9266;51.132;17.062;2022-08-03T12:13:17;30.50;99.90
18281;DHT22;9266;51.132;17.062;2022-08-03T12:15:50;30.30;99.90
18281;DHT22;9266;51.132;17.062;2022-08-03T12:18:19;30.20;99.90
18281;DHT22;9266;51.132;17.062;2022-08-03T12:20:47;30.60;99.90
18281;DHT22;9266;51.132;17.062;2022-08-03T12:23:14;30.50;99.90
18281;DHT22;9266;51.132;17.062;2022-08-03T12:25:42;30.60;99.90
18281;DHT22;9266;51.132;17.062;2022-08-03T12:28:15;30.50;99.90
18281;DHT22;9266;51.132;17.062;2022-08-03T12:30:45;30.40;99.90
18281;DHT22;9266;51.132;17.062;2022-08-03T12:33:18;30.60;99.90
18281;DHT22;9266;51.132;17.062;2022-08-03T12:35:47;30.50;99.90
18281;DHT22;9266;51.132;17.062;2022-08-03T12:38:20;30.50;99.90
18281;DHT22;9266;51.132;17.062;2022-08-03T12:41:00;30.60;99.90
18281;DHT22;9266;51.132;17.062;2022-08-03T12:43:29;30.50;99.90
18281;DHT22;9266;51.132;17.062;2022-08-03T12:46:13;30.60;99.90
18281;DHT22;9266;51.132;17.062;2022-08-03T12:49:04;30.60;99.90
18281;DHT22;9266;51.132;17.062;2022-08-03T12:51:32;30.50;99.90
18281;DHT22;9266;51.132;17.062;2022-08-03T12:54:01;30.50;99.90
18281;DHT22;9266;51.132;17.062;2022-08-03T12:56:28;30.60;99.90
18281;DHT22;9266;51.132;17.062;2022-08-03T12:58:56;30.50;99.90
18281;DHT22;9266;51.132;17.062;2022-08-03T13:01:23;30.60;99.90
18281;DHT22;9266;51.132;17.062;2022-08-03T13:03:52;30.60;99.90
18281;DHT22;9266;51.132;17.062;2022-08-03T13:06:21;30.60;99.90
18281;DHT22;9266;51.132;17.062;2022-08-03T13:08:49;30.70;99.90
18281;DHT22;9266;51.132;17.062;2022-08-03T13:11:21;30.70;99.90
18281;DHT22;9266;51.132;17.062;2022-08-03T13:13:49;30.70;99.90
18281;DHT22;9266;51.132;17.062;2022-08-03T13:16:18;30.50;99.90
18281;DHT22;9266;51.132;17.062;2022-08-03T13:18:50;30.60;99.90
18281;DHT22;9266;51.132;17.062;2022-08-03T13:21:19;30.40;99.90
18281;DHT22;9266;51.132;17.062;2022-08-03T13:23:46;30.40;99.90
18281;DHT22;9266;51.132;17.062;2022-08-03T13:26:13;30.60;99.90
18281;DHT22;9266;51.132;17.062;2022-08-03T13:28:40;30.50;99.90
18281;DHT22;9266;51.132;17.062;2022-08-03T13:31:08;30.60;99.90
18281;DHT22;9266;51.132;17.062;2022-08-03T13:33:36;30.60;99.90
18281;DHT22;9266;51.132;17.062;2022-08-03T13:36:05;30.50;99.90
18281;DHT22;9266;51.132;17.062;2022-08-03T13:38:32;30.30;99.90
18281;DHT22;9266;51.132;17.062;2022-08-03T13:41:01;30.40;99.90
18281;DHT22;9266;51.132;17.062;2022-08-03T13:43:29;30.50;99.90
18281;DHT22;9266;51.132;17.062;2022-08-03T13:45:56;30.70;99.90
18281;DHT22;9266;51.132;17.062;2022-08-03T13:48:23;30.80;99.90
18281;DHT22;9266;51.132;17.062;2022-08-03T13:50:51;31.00;99.90
18281;DHT22;9266;51.132;17.062;2022-08-03T13:53:18;31.00;99.90
18281;DHT22;9266;51.132;17.062;2022-08-03T13:55:45;30.90;99.90
18281;DHT22;9266;51.132;17.062;2022-08-03T13:58:13;31.00;99.90
18281;DHT22;9266;51.132;17.062;2022-08-03T14:00:40;31.00;99.90
18281;DHT22;9266;51.132;17.062;2022-08-03T14:03:07;31.00;99.90
18281;DHT22;9266;51.132;17.062;2022-08-03T14:05:34;31.00;99.90
18281;DHT22;9266;51.132;17.062;2022-08-03T14:08:04;31.00;99.90
18281;DHT22;9266;51.132;17.062;2022-08-03T14:10:34;30.90;99.90
18281;DHT22;9266;51.132;17.062;2022-08-03T14:13:01;31.00;99.90
18281;DHT22;9266;51.132;17.062;2022-08-03T14:15:28;31.00;99.90
18281;DHT22;9266;51.132;17.062;2022-08-03T14:17:55;30.80;99.90
18281;DHT22;9266;51.132;17.062;2022-08-03T14:20:26;30.60;99.90
18281;DHT22;9266;51.132;17.062;2022-08-03T14:22:53;30.80;99.90
18281;DHT22;9266;51.132;17.062;2022-08-03T14:25:22;30.60;99.90
18281;DHT22;9266;51.132;17.062;2022-08-03T14:27:49;30.40;99.90
18281;DHT22;9266;51.132;17.062;2022-08-03T14:30:16;29.30;99.90
18281;DHT22;9266;51.132;17.062;2022-08-03T14:32:43;29.90;99.90
18281;DHT22;9266;51.132;17.062;2022-08-03T14:35:10;30.00;99.90
18281;DHT22;9266;51.132;17.062;2022-08-03T14:37:38;30.40;99.90
18281;DHT22;9266;51.132;17.062;2022-08-03T14:40:05;30.50;99.90
18281;DHT22;9266;51.132;17.062;2022-08-03T14:42:34;30.60;99.90
18281;DHT22;9266;51.132;17.062;2022-08-03T14:45:01;30.70;99.90
18281;DHT22;9266;51.132;17.062;2022-08-03T14:47:28;30.70;99.90
18281;DHT22;9266;51.132;17.062;2022-08-03T14:49:55;30.80;99.90
18281;DHT22;9266;51.132;17.062;2022-08-03T14:52:23;30.70;99.90
18281;DHT22;9266;51.132;17.062;2022-08-03T14:54:50;30.70;99.90
18281;DHT22;9266;51.132;17.062;2022-08-03T14:57:17;30.80;99.90
18281;DHT22;9266;51.132;17.062;2022-08-03T14:59:50;30.80;99.90
18281;DHT22;9266;51.132;17.062;2022-08-03T15:02:17;30.70;99.90
18281;DHT22;9266;51.132;17.062;2022-08-03T15:04:47;30.60;99.90
18281;DHT22;9266;51.132;17.062;2022-08-03T15:07:14;30.70;99.90
18281;DHT22;9266;51.132;17.062;2022-08-03T15:09:44;30.60;99.90
18281;DHT22;9266;51.132;17.062;2022-08-03T15:12:11;30.40;99.90
18281;DHT22;9266;51.132;17.062;2022-08-03T15:14:38;30.50;99.90
18281;DHT22;9266;51.132;17.062;2022-08-03T15:17:06;30.60;99.90
18281;DHT22;9266;51.132;17.062;2022-08-03T15:19:33;30.60;99.90
18281;DHT22;9266;51.132;17.062;2022-08-03T15:22:00;30.60;99.90
18281;DHT22;9266;51.132;17.062;2022-08-03T15:24:28;30.60;99.90
18281;DHT22;9266;51.132;17.062;2022-08-03T15:26:55;30.60;99.90
18281;DHT22;9266;51.132;17.062;2022-08-03T15:29:22;30.60;99.90
18281;DHT22;9266;51.132;17.062;2022-08-03T15:31:49;30.60;99.90
18281;DHT22;9266;51.132;17.062;2022-08-03T15:34:17;30.60;99.90
18281;DHT22;9266;51.132;17.062;2022-08-03T15:36:45;30.60;99.90
18281;DHT22;9266;51.132;17.062;2022-08-03T15:39:12;30.60;99.90
18281;DHT22;9266;51.132;17.062;2022-08-03T15:41:39;30.60;99.90
18281;DHT22;9266;51.132;17.062;2022-08-03T15:44:06;30.60;99.90
18281;DHT22;9266;51.132;17.062;2022-08-03T15:46:33;30.50;99.90
18281;DHT22;9266;51.132;17.062;2022-08-03T15:49:00;30.40;99.90
18281;DHT22;9266;51.132;17.062;2022-08-03T15:51:28;30.30;99.90
18281;DHT22;9266;51.132;17.062;2022-08-03T15:53:55;30.40;99.90